Airport View

Enter AWOS ICAO identifier for current METAR.

ex. KFNL

KVOK 251056Z AUTO 00000KT 10SM BKN100 M02/M03 A3030 RMK AO2 SLP276 T10171027 $

25 Oct 2020 11:35

Other Area AWOS: K82C - KCMY - KC35 - KISW

TAF AMD KVOK 231925Z 2319/2423 33012KT 9999 BKN015 QNH3013INS TEMPO 2321/2322 33015G25KT 9000 -RA OVC010 BECMG 2402/2403 31006KT 9999 BKN025 QNH3015INS BECMG 2414/2415 30009KT 9999 SCT025 QNH3021INS TX05/2320Z TNM02/2413Z LAST NO AMDS AFT 2319 NEXT 2609